Gambler — LELC — position and weather

sailwx.info

Track history (hours):
 
Tides and Currents Weather Stations Pressure Air Temp Water Temp Dewpoint Dewpoint Depression Visibility Wind Speed Wind Dir Waves Ship Positions

Gambler

Last reported at 2017-Nov-18 15:31 UTC. Time now 2017-Nov-18 16:00 UTC.
Position N 63°14' E 008°01'.

Length 70 m; draft 6.5 m.

Type: Fishing. MMSI: 258412000.

Date/timePositionNaut miles runAvg speedWind from/ knotsBaromVisibWave heightAir tempDewpointWater temp
2017-Nov-18 15:31N 63°14' E 008°01'611.4
2017-Nov-18 15:00N 63°17' E 008°12'611.4
2017-Nov-18 14:30N 63°21' E 008°21'611.9
2017-Nov-18 14:00N 63°24' E 008°32'611.4
2017-Nov-18 13:31N 63°27' E 008°44'611.3
2017-Nov-18 13:00N 63°29' E 008°56'611.3
2017-Nov-18 12:31N 63°31' E 009°07'510.7
2017-Nov-18 12:00N 63°33' E 009°18'510.1
2017-Nov-18 11:30N 63°37' E 009°27'510.1
2017-Nov-18 11:00N 63°42' E 009°30'3 6.6
2017-Nov-18 10:30N 63°44' E 009°36'0 0.0
2017-Nov-18 10:00N 63°44' E 009°36'0 0.0
2017-Nov-18 09:30N 63°44' E 009°36'0 0.0
2017-Nov-18 09:00N 63°44' E 009°36'0 0.0
2017-Nov-18 08:30N 63°44' E 009°36'0 0.0
2017-Nov-18 08:00N 63°44' E 009°36'0 0.0
2017-Nov-18 07:29N 63°44' E 009°36'0 0.0
2017-Nov-18 06:59N 63°44' E 009°36'0 0.0
2017-Nov-18 06:29N 63°44' E 009°36'0 0.0
2017-Nov-18 05:59N 63°44' E 009°36'0 0.0
2017-Nov-18 05:29N 63°44' E 009°36'0 0.1
2017-Nov-18 04:59N 63°44' E 009°36'1 1.4
2017-Nov-18 04:29N 63°44' E 009°35'0 0.9
2017-Nov-18 03:59N 63°45' E 009°34'1 2.8
2017-Nov-18 03:30N 63°45' E 009°31'3 6.0
2017-Nov-18 03:00N 63°45' E 009°25'3 6.4
2017-Nov-18 02:30N 63°46' E 009°18'3 5.6
2017-Nov-18 02:00N 63°49' E 009°17'3 5.4
2017-Nov-18 01:30N 63°51' E 009°17'3 5.8
2017-Nov-18 01:00N 63°54' E 009°19'3 5.6
2017-Nov-18 00:30N 63°57' E 009°21'3 5.5
2017-Nov-18 00:00N 63°59' E 009°23'3 5.5
2017-Nov-17 23:30N 64°02' E 009°25'3 5.4
2017-Nov-17 23:00N 64°04' E 009°28'3 5.5
2017-Nov-17 22:29N 64°07' E 009°30'3 5.8
2017-Nov-17 21:59N 64°10' E 009°33'3 5.9
2017-Nov-17 21:30N 64°12' E 009°34'3 5.4
2017-Nov-17 21:00N 64°15' E 009°34'  
2017-Nov-13 02:00N 62°37' E 005°35'5 9.3
2017-Nov-13 01:30N 62°33' E 005°38'3 6.9
2017-Nov-13 01:00N 62°30' E 005°43'510.0
2017-Nov-13 00:30N 62°28' E 005°52'611.2
2017-Nov-13 00:00N 62°27' E 006°04'2 3.9
2017-Nov-12 23:30N 62°28' E 006°08'0 0.2
2017-Nov-12 23:00N 62°28' E 006°08'0 0.0
2017-Nov-12 22:30N 62°28' E 006°08'0 0.0
2017-Nov-12 22:00N 62°28' E 006°08'0 0.0
2017-Nov-12 21:30N 62°28' E 006°08'1 1.5
2017-Nov-12 21:00N 62°28' E 006°09'4 8.5
2017-Nov-12 20:30N 62°26' E 006°01'5 9.8
2017-Nov-12 20:00N 62°25' E 005°51'510.1
2017-Nov-12 19:30N 62°21' E 005°45'2 4.6
2017-Nov-12 18:59N 62°19' E 005°40'0 0.0
2017-Nov-12 18:29N 62°19' E 005°40'0 0.0
2017-Nov-12 17:59N 62°19' E 005°40'0 0.0
2017-Nov-12 17:29N 62°19' E 005°40'0 0.0
2017-Nov-12 16:59N 62°19' E 005°40'0 0.0
2017-Nov-12 16:29N 62°19' E 005°40'0 0.0
2017-Nov-12 15:59N 62°19' E 005°40'0 0.0
2017-Nov-12 15:29N 62°19' E 005°40'0 0.0
2017-Nov-12 14:59N 62°19' E 005°40'0 0.0
2017-Nov-12 14:29N 62°19' E 005°40'0 0.0
2017-Nov-12 13:59N 62°19' E 005°40'0 0.0
2017-Nov-12 13:29N 62°19' E 005°40'0 0.0
2017-Nov-12 12:59N 62°19' E 005°40'0 0.0
2017-Nov-12 12:29N 62°19' E 005°40'0 0.0
2017-Nov-12 11:59N 62°19' E 005°40'0 0.0
2017-Nov-12 11:29N 62°19' E 005°40'0 0.0
2017-Nov-12 10:59N 62°19' E 005°40'0 0.0
2017-Nov-12 10:28N 62°19' E 005°40'0 0.0
2017-Nov-12 09:58N 62°19' E 005°40'0 0.0
2017-Nov-12 09:28N 62°19' E 005°40'0 0.0
2017-Nov-12 08:58N 62°19' E 005°40'0 0.0
2017-Nov-12 08:28N 62°19' E 005°40'0 0.0
2017-Nov-12 07:58N 62°19' E 005°40'0 0.0
2017-Nov-12 07:28N 62°19' E 005°40'0 0.0
2017-Nov-12 06:58N 62°19' E 005°40'0 0.0
2017-Nov-12 06:28N 62°19' E 005°40'0 0.0
2017-Nov-12 05:58N 62°19' E 005°40'0 0.0
2017-Nov-12 05:28N 62°19' E 005°40'0 0.0
2017-Nov-12 04:58N 62°19' E 005°40'0 0.0
2017-Nov-12 04:28N 62°19' E 005°40'0 0.0
2017-Nov-12 03:58N 62°19' E 005°40'0 0.0
2017-Nov-12 03:28N 62°19' E 005°40'0 0.0
2017-Nov-12 02:58N 62°19' E 005°40'0 0.0
2017-Nov-12 02:28N 62°19' E 005°40'0 0.0
2017-Nov-12 01:58N 62°19' E 005°40'0 0.0
2017-Nov-12 01:28N 62°19' E 005°40'0 0.0
2017-Nov-12 00:58N 62°19' E 005°40'0 0.0
2017-Nov-12 00:28N 62°19' E 005°40'0 0.0
2017-Nov-11 23:58N 62°19' E 005°40'0 0.0
2017-Nov-11 23:28N 62°19' E 005°40'0 0.0
2017-Nov-11 22:58N 62°19' E 005°40'0 0.0
2017-Nov-11 22:28N 62°19' E 005°40'0 0.0
2017-Nov-11 21:58N 62°19' E 005°40'0 0.0
2017-Nov-11 21:28N 62°19' E 005°40'0 0.0
2017-Nov-11 20:58N 62°19' E 005°40'0 0.0
2017-Nov-11 20:28N 62°19' E 005°40'0 0.0
2017-Nov-11 19:58N 62°19' E 005°40'0 0.0
2017-Nov-11 19:25N 62°19' E 005°40'0 0.0
2017-Nov-11 18:58N 62°19' E 005°40'0 0.0
2017-Nov-11 18:28N 62°19' E 005°40'0 0.0
2017-Nov-11 17:58N 62°19' E 005°40'0 0.0
2017-Nov-11 17:28N 62°19' E 005°40'0 0.0
2017-Nov-11 16:58N 62°19' E 005°40'0 0.0
2017-Nov-11 16:28N 62°19' E 005°40'0 0.0
2017-Nov-11 15:58N 62°19' E 005°40'0 0.0
2017-Nov-11 15:28N 62°19' E 005°40'0 0.0
2017-Nov-11 14:58N 62°19' E 005°40'0 0.0
2017-Nov-11 14:28N 62°19' E 005°40'0 0.0
2017-Nov-11 13:58N 62°19' E 005°40'0 0.0
2017-Nov-11 13:28N 62°19' E 005°40'0 0.0
2017-Nov-11 12:58N 62°19' E 005°40'0 0.0
2017-Nov-11 12:28N 62°19' E 005°40'0 0.0
2017-Nov-11 11:58N 62°19' E 005°40'0 0.0
2017-Nov-11 11:28N 62°19' E 005°40'0 0.0
2017-Nov-11 10:58N 62°19' E 005°40'0 0.0
2017-Nov-11 10:28N 62°19' E 005°40'0 0.0
2017-Nov-11 09:58N 62°19' E 005°40'0 0.0
2017-Nov-11 09:28N 62°19' E 005°40'0 0.0
2017-Nov-11 08:58N 62°19' E 005°40'0 0.0
2017-Nov-11 08:28N 62°19' E 005°40'0 0.0
2017-Nov-11 07:58N 62°19' E 005°40'0 0.0
2017-Nov-11 07:28N 62°19' E 005°40'0 0.0
2017-Nov-11 06:58N 62°19' E 005°40'0 0.0
2017-Nov-11 06:28N 62°19' E 005°40'0 0.0
2017-Nov-11 05:58N 62°19' E 005°40'0 0.0
2017-Nov-11 05:28N 62°19' E 005°40'0 0.0
2017-Nov-11 04:58N 62°19' E 005°40'0 0.0
2017-Nov-11 04:28N 62°19' E 005°40'0 0.0
2017-Nov-11 03:58N 62°19' E 005°40'0 0.0
2017-Nov-11 03:28N 62°19' E 005°40'0 0.0
2017-Nov-11 02:58N 62°19' E 005°40'0 0.0
2017-Nov-11 02:28N 62°19' E 005°40'0 0.0
2017-Nov-11 01:58N 62°19' E 005°40'0 0.0
2017-Nov-11 01:28N 62°19' E 005°40'0 0.0
2017-Nov-11 00:58N 62°19' E 005°40'0 0.0
2017-Nov-11 00:28N 62°19' E 005°40'0 0.0
2017-Nov-10 23:58N 62°19' E 005°40'0 0.0
2017-Nov-10 23:28N 62°19' E 005°40'0 0.0
2017-Nov-10 22:58N 62°19' E 005°40'0 0.0
2017-Nov-10 22:28N 62°19' E 005°40'0 0.0
2017-Nov-10 21:58N 62°19' E 005°40'0 0.0
2017-Nov-10 21:28N 62°19' E 005°40'0 0.0
2017-Nov-10 20:58N 62°19' E 005°40'0 0.0
2017-Nov-10 20:28N 62°19' E 005°40'0 0.0
2017-Nov-10 19:58N 62°19' E 005°40'0 0.0
2017-Nov-10 19:28N 62°19' E 005°40'0 0.0
2017-Nov-10 18:58N 62°19' E 005°40'0 0.0
2017-Nov-10 18:28N 62°19' E 005°40'0 0.0
2017-Nov-10 17:58N 62°19' E 005°40'0 0.0
2017-Nov-10 17:28N 62°19' E 005°40'0 0.0
2017-Nov-10 17:01N 62°19' E 005°40'0 0.0
2017-Nov-10 16:31N 62°19' E 005°40'0 0.0
2017-Nov-10 16:01N 62°19' E 005°40'0 0.0
2017-Nov-10 15:30N 62°19' E 005°40'0 0.0
2017-Nov-10 15:00N 62°19' E 005°40'0 0.0
2017-Nov-10 14:30N 62°19' E 005°40'0 0.0
2017-Nov-10 14:00N 62°19' E 005°40'0 0.0
2017-Nov-10 13:30N 62°19' E 005°40'0 0.0
2017-Nov-10 13:00N 62°19' E 005°40'0 0.0
2017-Nov-10 12:30N 62°19' E 005°40'0 0.0
2017-Nov-10 12:00N 62°19' E 005°40'0 0.0
2017-Nov-10 11:30N 62°19' E 005°40'0 0.0
2017-Nov-10 11:00N 62°19' E 005°40'0 0.0
2017-Nov-10 10:30N 62°19' E 005°40'0 0.0
2017-Nov-10 10:00N 62°19' E 005°40'0 0.0
2017-Nov-10 09:30N 62°19' E 005°40'0 0.0
2017-Nov-10 09:00N 62°19' E 005°40'0 0.0
2017-Nov-10 08:30N 62°19' E 005°40'0 0.0
2017-Nov-10 08:00N 62°19' E 005°40'0 0.0
2017-Nov-10 07:30N 62°19' E 005°40'0 0.0
2017-Nov-10 07:00N 62°19' E 005°40'0 0.0
2017-Nov-10 06:30N 62°19' E 005°40'0 0.0
2017-Nov-10 06:00N 62°19' E 005°40'0 0.0
2017-Nov-10 05:30N 62°19' E 005°40'0 0.0
2017-Nov-10 05:00N 62°19' E 005°40'0 0.0
2017-Nov-10 04:30N 62°19' E 005°40'0 0.0
2017-Nov-10 04:00N 62°19' E 005°40'0 0.0
2017-Nov-10 03:30N 62°19' E 005°40'0 0.0
2017-Nov-10 03:00N 62°19' E 005°40'0 0.0
2017-Nov-10 02:30N 62°19' E 005°40'0 0.0
2017-Nov-10 02:00N 62°19' E 005°40'0 0.0
2017-Nov-10 01:30N 62°19' E 005°40'0 0.0
2017-Nov-10 01:00N 62°19' E 005°40'0 0.0
2017-Nov-10 00:30N 62°19' E 005°40'0 0.0
2017-Nov-10 00:00N 62°19' E 005°40'0 0.0
2017-Nov-09 23:30N 62°19' E 005°40'0 0.0
2017-Nov-09 23:00N 62°19' E 005°40'0 0.0
2017-Nov-09 22:30N 62°19' E 005°40'0 0.0
2017-Nov-09 22:00N 62°19' E 005°40'0 0.0
2017-Nov-09 21:30N 62°19' E 005°40'0 0.0
2017-Nov-09 21:00N 62°19' E 005°40'0 0.0
2017-Nov-09 20:30N 62°19' E 005°40'0 0.0
2017-Nov-09 20:00N 62°19' E 005°40'0 0.0
2017-Nov-09 19:30N 62°19' E 005°40'0 0.0
2017-Nov-09 19:00N 62°19' E 005°40'0 0.0
2017-Nov-09 18:30N 62°19' E 005°40'0 0.0
2017-Nov-09 18:00N 62°19' E 005°40'0 0.0
2017-Nov-09 17:30N 62°19' E 005°40'0 0.0
2017-Nov-09 17:00N 62°19' E 005°40'0 0.0
2017-Nov-09 16:30N 62°19' E 005°40'0 0.0
2017-Nov-09 16:00N 62°19' E 005°40'0 0.0
2017-Nov-09 15:30N 62°19' E 005°40'0 0.0
2017-Nov-09 15:00N 62°19' E 005°40'0 0.2
2017-Nov-09 14:30N 62°19' E 005°41'0 0.0
2017-Nov-09 14:00N 62°19' E 005°41'0 0.0
2017-Nov-09 13:30N 62°19' E 005°41'0 0.0
2017-Nov-09 13:00N 62°19' E 005°41'0 0.0
2017-Nov-09 12:30N 62°19' E 005°41'0 0.0
2017-Nov-09 12:00N 62°19' E 005°41'0 0.0
2017-Nov-09 11:30N 62°19' E 005°41'3 5.6
2017-Nov-09 11:00N 62°21' E 005°45'510.8
2017-Nov-09 10:30N 62°26' E 005°40'510.4
2017-Nov-09 10:00N 62°30' E 005°33'510.6
2017-Nov-09 09:30N 62°34' E 005°27'510.7
2017-Nov-09 09:00N 62°39' E 005°21'  
Track history (hours):
 
Tides and Currents Weather Stations Pressure Air Temp Water Temp Dewpoint Dewpoint Depression Visibility Wind Speed Wind Dir Waves Ship Positions

Gambler

Last reported at 2017-Nov-18 15:31 UTC. Time now 2017-Nov-18 16:00 UTC.
Position N 63°14' E 008°01'.

Length 70 m; draft 6.5 m.

Type: Fishing. MMSI: 258412000.

Date/timePositionNaut miles runAvg speedWind from/ knotsBaromVisibWave heightAir tempDewpointWater temp
2017-Nov-18 15:31N 63°14' E 008°01'611.4
2017-Nov-18 15:00N 63°17' E 008°12'611.4
2017-Nov-18 14:30N 63°21' E 008°21'611.9
2017-Nov-18 14:00N 63°24' E 008°32'611.4
2017-Nov-18 13:31N 63°27' E 008°44'611.3
2017-Nov-18 13:00N 63°29' E 008°56'611.3
2017-Nov-18 12:31N 63°31' E 009°07'510.7
2017-Nov-18 12:00N 63°33' E 009°18'510.1
2017-Nov-18 11:30N 63°37' E 009°27'510.1
2017-Nov-18 11:00N 63°42' E 009°30'3 6.6
2017-Nov-18 10:30N 63°44' E 009°36'0 0.0
2017-Nov-18 10:00N 63°44' E 009°36'0 0.0
2017-Nov-18 09:30N 63°44' E 009°36'0 0.0
2017-Nov-18 09:00N 63°44' E 009°36'0 0.0
2017-Nov-18 08:30N 63°44' E 009°36'0 0.0
2017-Nov-18 08:00N 63°44' E 009°36'0 0.0
2017-Nov-18 07:29N 63°44' E 009°36'0 0.0
2017-Nov-18 06:59N 63°44' E 009°36'0 0.0
2017-Nov-18 06:29N 63°44' E 009°36'0 0.0
2017-Nov-18 05:59N 63°44' E 009°36'0 0.0
2017-Nov-18 05:29N 63°44' E 009°36'0 0.1
2017-Nov-18 04:59N 63°44' E 009°36'1 1.4
2017-Nov-18 04:29N 63°44' E 009°35'0 0.9
2017-Nov-18 03:59N 63°45' E 009°34'1 2.8
2017-Nov-18 03:30N 63°45' E 009°31'3 6.0
2017-Nov-18 03:00N 63°45' E 009°25'3 6.4
2017-Nov-18 02:30N 63°46' E 009°18'3 5.6
2017-Nov-18 02:00N 63°49' E 009°17'3 5.4
2017-Nov-18 01:30N 63°51' E 009°17'3 5.8
2017-Nov-18 01:00N 63°54' E 009°19'3 5.6
2017-Nov-18 00:30N 63°57' E 009°21'3 5.5
2017-Nov-18 00:00N 63°59' E 009°23'3 5.5
2017-Nov-17 23:30N 64°02' E 009°25'3 5.4
2017-Nov-17 23:00N 64°04' E 009°28'3 5.5
2017-Nov-17 22:29N 64°07' E 009°30'3 5.8
2017-Nov-17 21:59N 64°10' E 009°33'3 5.9
2017-Nov-17 21:30N 64°12' E 009°34'3 5.4
2017-Nov-17 21:00N 64°15' E 009°34'  
2017-Nov-13 02:00N 62°37' E 005°35'5 9.3
2017-Nov-13 01:30N 62°33' E 005°38'3 6.9
2017-Nov-13 01:00N 62°30' E 005°43'510.0
2017-Nov-13 00:30N 62°28' E 005°52'611.2
2017-Nov-13 00:00N 62°27' E 006°04'2 3.9
2017-Nov-12 23:30N 62°28' E 006°08'0 0.2
2017-Nov-12 23:00N 62°28' E 006°08'0 0.0
2017-Nov-12 22:30N 62°28' E 006°08'0 0.0
2017-Nov-12 22:00N 62°28' E 006°08'0 0.0
2017-Nov-12 21:30N 62°28' E 006°08'1 1.5
2017-Nov-12 21:00N 62°28' E 006°09'4 8.5
2017-Nov-12 20:30N 62°26' E 006°01'5 9.8
2017-Nov-12 20:00N 62°25' E 005°51'510.1
2017-Nov-12 19:30N 62°21' E 005°45'2 4.6
2017-Nov-12 18:59N 62°19' E 005°40'0 0.0
2017-Nov-12 18:29N 62°19' E 005°40'0 0.0
2017-Nov-12 17:59N 62°19' E 005°40'0 0.0
2017-Nov-12 17:29N 62°19' E 005°40'0 0.0
2017-Nov-12 16:59N 62°19' E 005°40'0 0.0
2017-Nov-12 16:29N 62°19' E 005°40'0 0.0
2017-Nov-12 15:59N 62°19' E 005°40'0 0.0
2017-Nov-12 15:29N 62°19' E 005°40'0 0.0
2017-Nov-12 14:59N 62°19' E 005°40'0 0.0
2017-Nov-12 14:29N 62°19' E 005°40'0 0.0
2017-Nov-12 13:59N 62°19' E 005°40'0 0.0
2017-Nov-12 13:29N 62°19' E 005°40'0 0.0
2017-Nov-12 12:59N 62°19' E 005°40'0 0.0
2017-Nov-12 12:29N 62°19' E 005°40'0 0.0
2017-Nov-12 11:59N 62°19' E 005°40'0 0.0
2017-Nov-12 11:29N 62°19' E 005°40'0 0.0
2017-Nov-12 10:59N 62°19' E 005°40'0 0.0
2017-Nov-12 10:28N 62°19' E 005°40'0 0.0
2017-Nov-12 09:58N 62°19' E 005°40'0 0.0
2017-Nov-12 09:28N 62°19' E 005°40'0 0.0
2017-Nov-12 08:58N 62°19' E 005°40'0 0.0
2017-Nov-12 08:28N 62°19' E 005°40'0 0.0
2017-Nov-12 07:58N 62°19' E 005°40'0 0.0
2017-Nov-12 07:28N 62°19' E 005°40'0 0.0
2017-Nov-12 06:58N 62°19' E 005°40'0 0.0
2017-Nov-12 06:28N 62°19' E 005°40'0 0.0
2017-Nov-12 05:58N 62°19' E 005°40'0 0.0
2017-Nov-12 05:28N 62°19' E 005°40'0 0.0
2017-Nov-12 04:58N 62°19' E 005°40'0 0.0
2017-Nov-12 04:28N 62°19' E 005°40'0 0.0
2017-Nov-12 03:58N 62°19' E 005°40'0 0.0
2017-Nov-12 03:28N 62°19' E 005°40'0 0.0
2017-Nov-12 02:58N 62°19' E 005°40'0 0.0
2017-Nov-12 02:28N 62°19' E 005°40'0 0.0
2017-Nov-12 01:58N 62°19' E 005°40'0 0.0
2017-Nov-12 01:28N 62°19' E 005°40'0 0.0
2017-Nov-12 00:58N 62°19' E 005°40'0 0.0
2017-Nov-12 00:28N 62°19' E 005°40'0 0.0
2017-Nov-11 23:58N 62°19' E 005°40'0 0.0
2017-Nov-11 23:28N 62°19' E 005°40'0 0.0
2017-Nov-11 22:58N 62°19' E 005°40'0 0.0
2017-Nov-11 22:28N 62°19' E 005°40'0 0.0
2017-Nov-11 21:58N 62°19' E 005°40'0 0.0
2017-Nov-11 21:28N 62°19' E 005°40'0 0.0
2017-Nov-11 20:58N 62°19' E 005°40'0 0.0
2017-Nov-11 20:28N 62°19' E 005°40'0 0.0
2017-Nov-11 19:58N 62°19' E 005°40'0 0.0
2017-Nov-11 19:25N 62°19' E 005°40'0 0.0
2017-Nov-11 18:58N 62°19' E 005°40'0 0.0
2017-Nov-11 18:28N 62°19' E 005°40'0 0.0
2017-Nov-11 17:58N 62°19' E 005°40'0 0.0
2017-Nov-11 17:28N 62°19' E 005°40'0 0.0
2017-Nov-11 16:58N 62°19' E 005°40'0 0.0
2017-Nov-11 16:28N 62°19' E 005°40'0 0.0
2017-Nov-11 15:58N 62°19' E 005°40'0 0.0
2017-Nov-11 15:28N 62°19' E 005°40'0 0.0
2017-Nov-11 14:58N 62°19' E 005°40'0 0.0
2017-Nov-11 14:28N 62°19' E 005°40'0 0.0
2017-Nov-11 13:58N 62°19' E 005°40'0 0.0
2017-Nov-11 13:28N 62°19' E 005°40'0 0.0
2017-Nov-11 12:58N 62°19' E 005°40'0 0.0
2017-Nov-11 12:28N 62°19' E 005°40'0 0.0
2017-Nov-11 11:58N 62°19' E 005°40'0 0.0
2017-Nov-11 11:28N 62°19' E 005°40'0 0.0
2017-Nov-11 10:58N 62°19' E 005°40'0 0.0
2017-Nov-11 10:28N 62°19' E 005°40'0 0.0
2017-Nov-11 09:58N 62°19' E 005°40'0 0.0
2017-Nov-11 09:28N 62°19' E 005°40'0 0.0
2017-Nov-11 08:58N 62°19' E 005°40'0 0.0
2017-Nov-11 08:28N 62°19' E 005°40'0 0.0
2017-Nov-11 07:58N 62°19' E 005°40'0 0.0
2017-Nov-11 07:28N 62°19' E 005°40'0 0.0
2017-Nov-11 06:58N 62°19' E 005°40'0 0.0
2017-Nov-11 06:28N 62°19' E 005°40'0 0.0
2017-Nov-11 05:58N 62°19' E 005°40'0 0.0
2017-Nov-11 05:28N 62°19' E 005°40'0 0.0
2017-Nov-11 04:58N 62°19' E 005°40'0 0.0
2017-Nov-11 04:28N 62°19' E 005°40'0 0.0
2017-Nov-11 03:58N 62°19' E 005°40'0 0.0
2017-Nov-11 03:28N 62°19' E 005°40'0 0.0
2017-Nov-11 02:58N 62°19' E 005°40'0 0.0
2017-Nov-11 02:28N 62°19' E 005°40'0 0.0
2017-Nov-11 01:58N 62°19' E 005°40'0 0.0
2017-Nov-11 01:28N 62°19' E 005°40'0 0.0
2017-Nov-11 00:58N 62°19' E 005°40'0 0.0
2017-Nov-11 00:28N 62°19' E 005°40'0 0.0
2017-Nov-10 23:58N 62°19' E 005°40'0 0.0
2017-Nov-10 23:28N 62°19' E 005°40'0 0.0
2017-Nov-10 22:58N 62°19' E 005°40'0 0.0
2017-Nov-10 22:28N 62°19' E 005°40'0 0.0
2017-Nov-10 21:58N 62°19' E 005°40'0 0.0
2017-Nov-10 21:28N 62°19' E 005°40'0 0.0
2017-Nov-10 20:58N 62°19' E 005°40'0 0.0
2017-Nov-10 20:28N 62°19' E 005°40'0 0.0
2017-Nov-10 19:58N 62°19' E 005°40'0 0.0
2017-Nov-10 19:28N 62°19' E 005°40'0 0.0
2017-Nov-10 18:58N 62°19' E 005°40'0 0.0
2017-Nov-10 18:28N 62°19' E 005°40'0 0.0
2017-Nov-10 17:58N 62°19' E 005°40'0 0.0
2017-Nov-10 17:28N 62°19' E 005°40'0 0.0
2017-Nov-10 17:01N 62°19' E 005°40'0 0.0
2017-Nov-10 16:31N 62°19' E 005°40'0 0.0
2017-Nov-10 16:01N 62°19' E 005°40'0 0.0
2017-Nov-10 15:30N 62°19' E 005°40'0 0.0
2017-Nov-10 15:00N 62°19' E 005°40'0 0.0
2017-Nov-10 14:30N 62°19' E 005°40'0 0.0
2017-Nov-10 14:00N 62°19' E 005°40'0 0.0
2017-Nov-10 13:30N 62°19' E 005°40'0 0.0
2017-Nov-10 13:00N 62°19' E 005°40'0 0.0
2017-Nov-10 12:30N 62°19' E 005°40'0 0.0
2017-Nov-10 12:00N 62°19' E 005°40'0 0.0
2017-Nov-10 11:30N 62°19' E 005°40'0 0.0
2017-Nov-10 11:00N 62°19' E 005°40'0 0.0
2017-Nov-10 10:30N 62°19' E 005°40'0 0.0
2017-Nov-10 10:00N 62°19' E 005°40'0 0.0
2017-Nov-10 09:30N 62°19' E 005°40'0 0.0
2017-Nov-10 09:00N 62°19' E 005°40'0 0.0
2017-Nov-10 08:30N 62°19' E 005°40'0 0.0
2017-Nov-10 08:00N 62°19' E 005°40'0 0.0
2017-Nov-10 07:30N 62°19' E 005°40'0 0.0
2017-Nov-10 07:00N 62°19' E 005°40'0 0.0
2017-Nov-10 06:30N 62°19' E 005°40'0 0.0
2017-Nov-10 06:00N 62°19' E 005°40'0 0.0
2017-Nov-10 05:30N 62°19' E 005°40'0 0.0
2017-Nov-10 05:00N 62°19' E 005°40'0 0.0
2017-Nov-10 04:30N 62°19' E 005°40'0 0.0
2017-Nov-10 04:00N 62°19' E 005°40'0 0.0
2017-Nov-10 03:30N 62°19' E 005°40'0 0.0
2017-Nov-10 03:00N 62°19' E 005°40'0 0.0
2017-Nov-10 02:30N 62°19' E 005°40'0 0.0
2017-Nov-10 02:00N 62°19' E 005°40'0 0.0
2017-Nov-10 01:30N 62°19' E 005°40'0 0.0
2017-Nov-10 01:00N 62°19' E 005°40'0 0.0
2017-Nov-10 00:30N 62°19' E 005°40'0 0.0
2017-Nov-10 00:00N 62°19' E 005°40'0 0.0
2017-Nov-09 23:30N 62°19' E 005°40'0 0.0
2017-Nov-09 23:00N 62°19' E 005°40'0 0.0
2017-Nov-09 22:30N 62°19' E 005°40'0 0.0
2017-Nov-09 22:00N 62°19' E 005°40'0 0.0
2017-Nov-09 21:30N 62°19' E 005°40'0 0.0
2017-Nov-09 21:00N 62°19' E 005°40'0 0.0
2017-Nov-09 20:30N 62°19' E 005°40'0 0.0
2017-Nov-09 20:00N 62°19' E 005°40'0 0.0
2017-Nov-09 19:30N 62°19' E 005°40'0 0.0
2017-Nov-09 19:00N 62°19' E 005°40'0 0.0
2017-Nov-09 18:30N 62°19' E 005°40'0 0.0
2017-Nov-09 18:00N 62°19' E 005°40'0 0.0
2017-Nov-09 17:30N 62°19' E 005°40'0 0.0
2017-Nov-09 17:00N 62°19' E 005°40'0 0.0
2017-Nov-09 16:30N 62°19' E 005°40'0 0.0
2017-Nov-09 16:00N 62°19' E 005°40'0 0.0
2017-Nov-09 15:30N 62°19' E 005°40'0 0.0
2017-Nov-09 15:00N 62°19' E 005°40'0 0.2
2017-Nov-09 14:30N 62°19' E 005°41'0 0.0
2017-Nov-09 14:00N 62°19' E 005°41'0 0.0
2017-Nov-09 13:30N 62°19' E 005°41'0 0.0
2017-Nov-09 13:00N 62°19' E 005°41'0 0.0
2017-Nov-09 12:30N 62°19' E 005°41'0 0.0
2017-Nov-09 12:00N 62°19' E 005°41'0 0.0
2017-Nov-09 11:30N 62°19' E 005°41'3 5.6
2017-Nov-09 11:00N 62°21' E 005°45'510.8
2017-Nov-09 10:30N 62°26' E 005°40'510.4
2017-Nov-09 10:00N 62°30' E 005°33'510.6
2017-Nov-09 09:30N 62°34' E 005°27'510.7
2017-Nov-09 09:00N 62°39' E 005°21'  

Dump ship's entire track history